createdAt,value
2019-03-13T00:00:58.006Z,20.73
2019-03-13T00:03:29.157Z,20.73
2019-03-13T00:06:00.193Z,19.93
2019-03-13T00:08:31.030Z,21.10
2019-03-13T00:11:01.873Z,21.20
2019-03-13T00:13:32.638Z,22.90
2019-03-13T00:16:03.200Z,22.10
2019-03-13T00:18:33.760Z,22.23
2019-03-13T00:21:04.276Z,22.63
2019-03-13T00:23:34.964Z,20.93
2019-03-13T00:26:06.809Z,21.73
2019-03-13T00:28:37.264Z,22.67
2019-03-13T00:31:07.904Z,23.53
2019-03-13T00:33:38.348Z,22.03
2019-03-13T00:36:09.222Z,22.27
2019-03-13T00:38:39.770Z,21.67
2019-03-13T00:41:10.255Z,22.50
2019-03-13T00:43:41.156Z,21.70
2019-03-13T00:46:12.141Z,22.13
2019-03-13T00:48:43.131Z,22.77
2019-03-13T00:51:13.582Z,21.87
2019-03-13T00:53:44.163Z,22.43
2019-03-13T00:56:14.893Z,22.47
2019-03-13T00:58:45.381Z,22.90
2019-03-13T01:01:38.019Z,23.57
2019-03-13T01:04:13.761Z,22.63
2019-03-13T01:06:47.888Z,23.03
2019-03-13T01:09:18.573Z,22.90
2019-03-13T01:11:49.062Z,23.77
2019-03-13T01:14:19.625Z,22.90
2019-03-13T01:16:51.125Z,24.13
2019-03-13T01:19:21.973Z,24.10
2019-03-13T01:21:52.697Z,24.93
2019-03-13T01:24:23.171Z,24.03
2019-03-13T01:26:53.654Z,23.40
2019-03-13T01:29:24.434Z,24.50
2019-03-13T01:32:22.844Z,24.43
2019-03-13T01:35:10.758Z,22.57
2019-03-13T01:37:41.371Z,22.33
2019-03-13T01:40:12.866Z,23.03
2019-03-13T01:42:43.533Z,21.93
2019-03-13T01:45:14.276Z,22.80
2019-03-13T01:47:44.865Z,23.87
2019-03-13T01:50:15.796Z,23.67
2019-03-13T01:52:46.974Z,22.97
2019-03-13T01:55:17.682Z,23.53
2019-03-13T01:57:48.176Z,24.10
2019-03-13T02:00:18.736Z,22.73
2019-03-13T02:02:49.276Z,23.47
2019-03-13T02:05:19.761Z,24.07
2019-03-13T02:07:50.443Z,24.40
2019-03-13T02:10:21.315Z,24.03
2019-03-13T02:12:52.240Z,23.63
2019-03-13T02:15:22.652Z,23.53
2019-03-13T02:17:53.123Z,24.13
2019-03-13T02:20:24.179Z,25.77
2019-03-13T02:22:55.091Z,26.77
2019-03-13T02:25:25.541Z,26.23
2019-03-13T02:27:56.227Z,25.70
2019-03-13T02:30:27.766Z,25.70
2019-03-13T02:32:58.290Z,24.77
2019-03-13T02:35:28.955Z,24.47
2019-03-13T02:37:59.493Z,24.57
2019-03-13T02:40:31.469Z,25.83
2019-03-13T02:43:02.229Z,26.53
2019-03-13T02:45:32.762Z,23.87
2019-03-13T02:48:03.466Z,24.23
2019-03-13T02:50:34.156Z,23.63
2019-03-13T02:53:04.723Z,23.47
2019-03-13T02:55:35.262Z,22.93
2019-03-13T02:58:05.859Z,23.67
2019-03-13T03:00:49.739Z,22.83
2019-03-13T03:03:32.208Z,22.93
2019-03-13T03:06:02.770Z,23.97
2019-03-13T03:08:33.416Z,23.47
2019-03-13T03:11:03.990Z,25.17
2019-03-13T03:13:34.475Z,24.60
2019-03-13T03:16:06.240Z,26.20
2019-03-13T03:18:36.959Z,24.90
2019-03-13T03:21:07.894Z,24.40
2019-03-13T03:23:38.524Z,24.77
2019-03-13T03:26:09.056Z,24.53
2019-03-13T03:28:40.137Z,25.00
2019-03-13T03:31:10.829Z,23.93
2019-03-13T03:33:41.723Z,25.20
2019-03-13T03:36:12.343Z,23.93
2019-03-13T03:38:42.909Z,24.47
2019-03-13T03:41:13.372Z,24.93
2019-03-13T03:43:43.794Z,23.27
2019-03-13T03:46:14.460Z,22.73
2019-03-13T03:48:44.921Z,23.00
2019-03-13T03:51:15.769Z,23.60
2019-03-13T03:53:46.205Z,23.33
2019-03-13T03:56:16.828Z,24.63
2019-03-13T03:58:47.253Z,23.13
2019-03-13T04:01:17.728Z,22.30
2019-03-13T04:03:48.211Z,22.23
2019-03-13T04:06:18.769Z,22.23
2019-03-13T04:08:49.264Z,21.63
2019-03-13T04:11:20.013Z,21.83
2019-03-13T04:13:50.461Z,22.10
2019-03-13T04:16:20.888Z,21.90
2019-03-13T04:18:52.950Z,20.67
2019-03-13T04:21:23.427Z,19.97
2019-03-13T04:23:54.271Z,21.90
2019-03-13T04:26:25.676Z,19.27
2019-03-13T04:28:56.394Z,20.00
2019-03-13T04:31:27.059Z,19.97
2019-03-13T04:33:57.876Z,19.93
2019-03-13T04:36:28.376Z,19.93
2019-03-13T04:38:58.812Z,18.33
2019-03-13T04:41:29.424Z,18.83
2019-03-13T04:43:59.850Z,18.33
2019-03-13T04:46:30.291Z,18.83
2019-03-13T04:49:01.193Z,16.20
2019-03-13T04:51:31.941Z,17.90
2019-03-13T04:54:02.373Z,17.63
2019-03-13T04:56:32.835Z,16.70
2019-03-13T04:59:03.237Z,17.17
2019-03-13T05:01:33.936Z,16.33
2019-03-13T05:04:04.422Z,17.63
2019-03-13T05:06:35.111Z,16.53
2019-03-13T05:09:10.400Z,16.53
2019-03-13T05:11:40.933Z,15.70
2019-03-13T05:14:11.704Z,16.90
2019-03-13T05:16:42.749Z,16.27
2019-03-13T05:19:13.260Z,15.67
2019-03-13T05:21:43.802Z,15.97
2019-03-13T05:24:14.416Z,15.03
2019-03-13T05:26:44.935Z,16.03
2019-03-13T05:29:15.658Z,16.00
2019-03-13T05:31:47.240Z,14.73
2019-03-13T05:34:17.947Z,14.63
2019-03-13T05:36:48.646Z,15.50
2019-03-13T05:39:19.478Z,15.07
2019-03-13T05:41:49.979Z,15.47
2019-03-13T05:44:20.432Z,15.40
2019-03-13T05:46:51.840Z,13.97
2019-03-13T05:49:22.313Z,13.33
2019-03-13T05:51:53.361Z,15.37
2019-03-13T05:54:24.038Z,14.17
2019-03-13T05:56:54.853Z,14.93
2019-03-13T05:59:25.491Z,14.23
2019-03-13T06:01:56.068Z,15.43
2019-03-13T06:04:26.473Z,14.13
2019-03-13T06:06:57.215Z,14.80
2019-03-13T06:09:27.763Z,15.17
2019-03-13T06:11:58.723Z,14.77
2019-03-13T06:14:29.292Z,15.33
2019-03-13T06:16:59.880Z,14.67
2019-03-13T06:19:30.332Z,14.60
2019-03-13T06:22:00.922Z,14.57
2019-03-13T06:24:31.419Z,14.00
2019-03-13T06:27:02.332Z,12.40
2019-03-13T06:29:33.059Z,12.43
2019-03-13T06:32:03.545Z,12.53
2019-03-13T06:34:34.167Z,13.17
2019-03-13T06:37:04.784Z,12.70
2019-03-13T06:39:35.381Z,12.83
2019-03-13T06:42:05.893Z,12.77
2019-03-13T06:44:36.410Z,12.80
2019-03-13T06:47:06.913Z,12.07
2019-03-13T06:49:37.361Z,12.10
2019-03-13T06:52:07.847Z,12.93
2019-03-13T06:54:38.539Z,11.80
2019-03-13T06:57:08.995Z,12.60
2019-03-13T06:59:58.393Z,11.53
2019-03-13T07:02:34.139Z,11.53
2019-03-13T07:05:39.113Z,10.80
2019-03-13T07:08:31.479Z,14.53
2019-03-13T07:11:15.252Z,12.40
2019-03-13T07:13:55.609Z,13.80
2019-03-13T07:16:44.185Z,13.40
2019-03-13T07:19:36.824Z,13.57
2019-03-13T07:22:44.508Z,13.00
2019-03-13T07:25:28.130Z,11.93
2019-03-13T07:28:23.544Z,12.20
2019-03-13T07:31:22.199Z,12.60
2019-03-13T07:34:17.495Z,11.43
2019-03-13T07:37:12.912Z,11.03
2019-03-13T07:40:00.972Z,10.87
2019-03-13T07:42:47.254Z,10.63
2019-03-13T07:45:36.018Z,10.50
2019-03-13T07:48:34.683Z,10.50
2019-03-13T07:51:20.265Z,9.23
2019-03-13T07:54:01.027Z,9.50
2019-03-13T07:56:45.477Z,9.67
2019-03-13T07:59:34.825Z,9.37
2019-03-13T08:02:12.729Z,8.43
2019-03-13T08:04:58.272Z,9.77
2019-03-13T08:07:37.740Z,8.97
2019-03-13T08:10:28.417Z,9.50
2019-03-13T08:13:36.407Z,8.97
2019-03-13T08:16:22.303Z,8.73
2019-03-13T08:19:10.907Z,8.87
2019-03-13T08:21:55.869Z,8.33
2019-03-13T08:24:44.214Z,9.13
2019-03-13T08:27:22.946Z,8.00
2019-03-13T08:30:20.425Z,8.50
2019-03-13T08:33:25.311Z,8.47
2019-03-13T08:36:13.979Z,8.27
2019-03-13T08:39:12.234Z,8.00
2019-03-13T08:42:13.689Z,8.90
2019-03-13T08:45:14.950Z,9.17
2019-03-13T08:48:02.054Z,8.77
2019-03-13T08:50:57.313Z,9.20
2019-03-13T08:53:56.458Z,8.73
2019-03-13T08:56:45.171Z,9.37
2019-03-13T08:59:23.703Z,8.90
2019-03-13T09:02:28.856Z,9.10
2019-03-13T09:05:17.242Z,8.67
2019-03-13T09:08:04.608Z,9.23
2019-03-13T09:10:52.589Z,9.00
2019-03-13T09:13:48.327Z,8.00
2019-03-13T09:16:55.961Z,8.40
2019-03-13T09:19:43.670Z,8.27
2019-03-13T09:22:25.811Z,7.90
2019-03-13T09:25:12.873Z,7.80
2019-03-13T09:28:03.778Z,7.93
2019-03-13T09:31:05.207Z,7.80
2019-03-13T09:33:49.630Z,6.80
2019-03-13T09:36:42.169Z,7.50
2019-03-13T09:39:32.793Z,7.37
2019-03-13T09:42:18.815Z,7.37
2019-03-13T09:45:11.162Z,7.20
2019-03-13T09:48:09.652Z,7.60
2019-03-13T09:50:55.328Z,7.33
2019-03-13T09:53:30.971Z,7.53
2019-03-13T09:56:15.450Z,7.20
2019-03-13T09:59:08.047Z,6.93
2019-03-13T10:02:01.029Z,7.40
2019-03-13T10:04:53.265Z,7.67
2019-03-13T10:07:32.894Z,7.30
2019-03-13T10:10:21.350Z,8.27
2019-03-13T10:13:01.940Z,7.63
2019-03-13T10:15:45.258Z,7.20
2019-03-13T10:18:33.756Z,8.13
2019-03-13T10:21:22.398Z,8.40
2019-03-13T10:24:03.030Z,8.37
2019-03-13T10:27:07.662Z,8.33
2019-03-13T10:29:43.412Z,8.23
2019-03-13T10:32:39.559Z,7.57
2019-03-13T10:35:22.420Z,8.53
2019-03-13T10:38:14.272Z,7.73
2019-03-13T10:41:10.953Z,9.13
2019-03-13T10:44:03.606Z,8.87
2019-03-13T10:46:59.144Z,8.63
2019-03-13T10:49:46.838Z,9.93
2019-03-13T10:52:42.286Z,9.93
2019-03-13T10:55:34.843Z,9.37
2019-03-13T10:58:33.703Z,9.87
2019-03-13T11:01:08.945Z,10.07
2019-03-13T11:04:01.989Z,9.30
2019-03-13T11:06:55.510Z,9.23
2019-03-13T11:09:37.483Z,9.20
2019-03-13T11:12:32.884Z,9.43
2019-03-13T11:15:10.789Z,8.80
2019-03-13T11:18:03.316Z,9.50
2019-03-13T11:20:47.265Z,9.13
2019-03-13T11:23:27.218Z,9.93
2019-03-13T11:26:08.110Z,9.37
2019-03-13T11:28:47.643Z,8.97
2019-03-13T11:31:32.070Z,8.63
2019-03-13T11:34:21.215Z,9.43
2019-03-13T11:37:19.960Z,9.80
2019-03-13T11:40:21.700Z,10.10
2019-03-13T11:43:09.670Z,8.87
2019-03-13T11:45:57.832Z,9.40
2019-03-13T11:48:50.292Z,9.67
2019-03-13T11:51:41.368Z,10.57
2019-03-13T11:54:30.865Z,9.37
2019-03-13T11:57:10.630Z,10.53
2019-03-13T11:59:49.489Z,10.57
2019-03-13T12:02:37.846Z,10.37
2019-03-13T12:05:31.952Z,9.50
2019-03-13T12:08:28.543Z,9.83
2019-03-13T12:11:33.339Z,10.20
2019-03-13T12:14:34.948Z,10.13
2019-03-13T12:17:21.912Z,9.27
2019-03-13T12:20:14.301Z,8.70
2019-03-13T12:23:09.761Z,9.70
2019-03-13T12:26:05.345Z,9.27
2019-03-13T12:28:48.063Z,8.50
2019-03-13T12:32:06.147Z,9.00
2019-03-13T12:34:54.519Z,9.10
2019-03-13T12:37:59.293Z,8.70
2019-03-13T12:41:00.829Z,8.40
2019-03-13T12:43:51.360Z,8.43
2019-03-13T12:46:43.996Z,8.67
2019-03-13T12:49:24.074Z,8.57
2019-03-13T12:52:07.057Z,9.37
2019-03-13T12:55:02.618Z,9.17
2019-03-13T12:57:50.529Z,9.10
2019-03-13T13:00:38.496Z,8.53
2019-03-13T13:03:31.052Z,9.87
2019-03-13T13:06:38.576Z,8.43
2019-03-13T13:09:37.265Z,9.20
2019-03-13T13:12:29.785Z,9.27
2019-03-13T13:15:10.837Z,9.73
2019-03-13T13:17:49.544Z,9.37
2019-03-13T13:20:20.104Z,8.13
2019-03-13T13:22:50.672Z,8.47
2019-03-13T13:25:21.176Z,8.60
2019-03-13T13:27:51.782Z,8.00
2019-03-13T13:30:22.266Z,8.23
2019-03-13T13:32:52.750Z,8.87
2019-03-13T13:35:23.208Z,7.57
2019-03-13T13:37:53.615Z,7.47
2019-03-13T13:40:24.027Z,7.10
2019-03-13T13:42:54.591Z,7.33
2019-03-13T13:45:44.371Z,7.13
2019-03-13T13:48:14.928Z,7.83
2019-03-13T13:50:45.443Z,7.63
2019-03-13T13:53:16.069Z,6.47
2019-03-13T13:55:46.531Z,6.40
2019-03-13T13:58:17.055Z,5.37
2019-03-13T14:00:47.645Z,5.17
2019-03-13T14:03:18.299Z,6.33
2019-03-13T14:05:48.789Z,7.03
2019-03-13T14:08:19.225Z,6.30
2019-03-13T14:10:49.891Z,6.00
2019-03-13T14:13:20.283Z,5.37
2019-03-13T14:15:50.763Z,6.87
2019-03-13T14:18:21.711Z,6.53
2019-03-13T14:20:52.216Z,5.70
2019-03-13T14:23:22.599Z,5.90
2019-03-13T14:25:53.068Z,6.87
2019-03-13T14:28:23.452Z,6.90
2019-03-13T14:30:53.932Z,6.50
2019-03-13T14:33:24.558Z,6.57
2019-03-13T14:35:56.206Z,6.20
2019-03-13T14:38:27.020Z,5.40
2019-03-13T14:40:57.805Z,5.00
2019-03-13T14:43:28.282Z,4.77
2019-03-13T14:45:58.849Z,4.67
2019-03-13T14:48:29.514Z,4.47
2019-03-13T14:51:00.007Z,4.97
2019-03-13T14:53:30.504Z,4.10
2019-03-13T14:56:00.928Z,4.30
2019-03-13T14:58:31.736Z,4.23
2019-03-13T15:01:02.151Z,4.40
2019-03-13T15:03:33.102Z,4.80
2019-03-13T15:06:03.654Z,4.60
2019-03-13T15:08:34.448Z,4.50
2019-03-13T15:11:05.015Z,4.50
2019-03-13T15:13:35.729Z,4.77
2019-03-13T15:16:06.313Z,4.63
2019-03-13T15:18:36.906Z,4.80
2019-03-13T15:21:07.448Z,4.43
2019-03-13T15:23:37.903Z,4.17
2019-03-13T15:26:08.389Z,4.60
2019-03-13T15:28:38.991Z,4.60
2019-03-13T15:31:10.068Z,4.40
2019-03-13T15:33:41.883Z,5.00
2019-03-13T15:36:12.531Z,4.47
2019-03-13T15:38:43.144Z,4.50
2019-03-13T15:41:13.791Z,4.80
2019-03-13T15:43:44.506Z,5.30
2019-03-13T15:46:15.154Z,4.57
2019-03-13T15:48:45.664Z,4.47
2019-03-13T15:51:16.068Z,4.43
2019-03-13T15:53:46.833Z,4.53
2019-03-13T15:56:17.321Z,4.90
2019-03-13T15:58:47.722Z,4.77
2019-03-13T16:01:18.284Z,5.07
2019-03-13T16:03:48.774Z,4.67
2019-03-13T16:06:19.201Z,5.23
2019-03-13T16:08:49.802Z,5.30
2019-03-13T16:11:20.200Z,5.47
2019-03-13T16:13:50.732Z,5.23
2019-03-13T16:16:21.242Z,6.03
2019-03-13T16:18:51.750Z,5.30
2019-03-13T16:21:22.385Z,5.33
2019-03-13T16:23:54.195Z,5.13
2019-03-13T16:26:24.750Z,5.87
2019-03-13T16:28:55.426Z,5.50
2019-03-13T16:31:26.324Z,5.50
2019-03-13T16:33:59.758Z,6.40
2019-03-13T16:36:30.272Z,5.80
2019-03-13T16:39:01.081Z,5.33
2019-03-13T16:41:33.145Z,6.13
2019-03-13T16:44:03.785Z,6.67
2019-03-13T16:46:34.314Z,5.90
2019-03-13T16:49:05.041Z,5.70
2019-03-13T16:51:35.691Z,5.83
2019-03-13T16:54:06.313Z,5.87
2019-03-13T16:56:36.799Z,5.83
2019-03-13T16:59:07.479Z,5.80
2019-03-13T17:01:37.967Z,5.53
2019-03-13T17:04:08.733Z,6.03
2019-03-13T17:06:39.302Z,5.47
2019-03-13T17:09:09.887Z,5.43
2019-03-13T17:11:41.737Z,5.53
2019-03-13T17:14:12.449Z,5.70
2019-03-13T17:16:42.882Z,5.57
2019-03-13T17:19:13.476Z,5.57
2019-03-13T17:21:44.102Z,7.80
2019-03-13T17:24:15.019Z,5.93
2019-03-13T17:26:45.440Z,6.53
2019-03-13T17:29:15.984Z,6.17
2019-03-13T17:31:46.815Z,6.90
2019-03-13T17:34:17.450Z,7.13
2019-03-13T17:36:48.147Z,7.40
2019-03-13T17:39:19.084Z,6.63
2019-03-13T17:41:49.611Z,7.47
2019-03-13T17:44:20.090Z,7.03
2019-03-13T17:46:50.451Z,7.17
2019-03-13T17:49:21.120Z,7.03
2019-03-13T17:51:51.554Z,8.03
2019-03-13T17:54:22.006Z,8.47
2019-03-13T17:56:52.471Z,9.03
2019-03-13T17:59:22.926Z,8.93
2019-03-13T18:01:53.534Z,8.87
2019-03-13T18:04:23.982Z,9.00
2019-03-13T18:06:54.963Z,9.83
2019-03-13T18:09:25.702Z,9.13
2019-03-13T18:11:56.378Z,8.83
2019-03-13T18:14:29.550Z,9.50
2019-03-13T18:16:59.410Z,9.03
2019-03-13T18:19:30.197Z,9.30
2019-03-13T18:22:01.347Z,10.07
2019-03-13T18:24:32.315Z,11.60
2019-03-13T18:27:03.512Z,14.07
2019-03-13T18:29:34.531Z,14.10
2019-03-13T18:32:05.585Z,12.83
2019-03-13T18:34:36.421Z,11.37
2019-03-13T18:37:07.789Z,10.37
2019-03-13T18:39:39.466Z,10.20
2019-03-13T18:42:11.112Z,10.33
2019-03-13T18:44:42.195Z,10.23
2019-03-13T18:47:13.297Z,11.77
2019-03-13T18:49:44.035Z,10.97
2019-03-13T18:52:16.047Z,11.53
2019-03-13T18:54:47.816Z,12.60
2019-03-13T18:57:19.976Z,12.33
2019-03-13T18:59:53.411Z,13.23
2019-03-13T19:02:25.480Z,13.07
2019-03-13T19:04:57.781Z,13.10
2019-03-13T19:07:29.326Z,12.80
2019-03-13T19:10:00.504Z,14.17
2019-03-13T19:12:32.324Z,13.83
2019-03-13T19:15:04.595Z,13.63
2019-03-13T19:17:35.758Z,13.63
2019-03-13T19:20:07.791Z,14.33
2019-03-13T19:22:38.745Z,13.97
2019-03-13T19:25:11.513Z,14.53
2019-03-13T19:27:43.237Z,14.80
2019-03-13T19:30:19.813Z,13.87
2019-03-13T19:32:51.172Z,13.63
2019-03-13T19:35:22.588Z,13.67
2019-03-13T19:37:54.063Z,14.83
2019-03-13T19:40:25.289Z,14.10
2019-03-13T19:42:56.148Z,14.80
2019-03-13T19:45:29.694Z,15.27
2019-03-13T19:48:01.494Z,15.20
2019-03-13T19:50:32.955Z,14.23
2019-03-13T19:53:04.167Z,15.80
2019-03-13T19:55:35.386Z,17.53
2019-03-13T19:58:06.659Z,16.27
2019-03-13T20:00:37.575Z,17.93
2019-03-13T20:03:09.250Z,18.53
2019-03-13T20:05:45.395Z,17.73
2019-03-13T20:08:14.138Z,16.43
2019-03-13T20:10:45.047Z,16.53
2019-03-13T20:13:15.923Z,18.80
2019-03-13T20:15:47.024Z,19.10
2019-03-13T20:18:17.799Z,17.37
2019-03-13T20:20:48.706Z,16.10
2019-03-13T20:23:20.458Z,16.70
2019-03-13T20:25:53.436Z,15.50
2019-03-13T20:28:24.548Z,17.13
2019-03-13T20:30:55.584Z,16.90
2019-03-13T20:33:26.850Z,16.30
2019-03-13T20:35:58.115Z,17.00
2019-03-13T20:38:29.036Z,17.00
2019-03-13T20:41:00.281Z,17.77
2019-03-13T20:43:31.186Z,17.50
2019-03-13T20:46:01.971Z,17.63
2019-03-13T20:48:32.902Z,16.90
2019-03-13T20:51:03.788Z,17.07
2019-03-13T20:53:34.678Z,17.67
2019-03-13T20:56:05.664Z,18.33
2019-03-13T20:58:37.139Z,18.07
2019-03-13T21:01:08.097Z,17.40
2019-03-13T21:03:38.632Z,19.03
2019-03-13T21:06:09.326Z,17.73
2019-03-13T21:08:40.390Z,17.90
2019-03-13T21:11:11.909Z,17.83
2019-03-13T21:13:42.778Z,18.17
2019-03-13T21:16:13.472Z,18.83
2019-03-13T21:18:44.383Z,18.20
2019-03-13T21:21:16.183Z,20.33
2019-03-13T21:23:46.790Z,18.73
2019-03-13T21:26:17.763Z,18.03
2019-03-13T21:28:48.463Z,17.37
2019-03-13T21:31:19.944Z,17.40
2019-03-13T21:33:50.699Z,19.03
2019-03-13T21:36:22.090Z,18.13
2019-03-13T21:38:53.197Z,17.87
2019-03-13T21:41:24.049Z,18.23
2019-03-13T21:43:55.049Z,18.20
2019-03-13T21:46:25.759Z,17.07
2019-03-13T21:48:56.633Z,17.50
2019-03-13T21:51:27.601Z,17.30
2019-03-13T21:53:58.073Z,17.50
2019-03-13T21:56:28.543Z,19.07
2019-03-13T21:58:59.467Z,17.50
2019-03-13T22:01:30.139Z,17.57
2019-03-13T22:04:00.670Z,17.40
2019-03-13T22:06:31.369Z,16.73
2019-03-13T22:09:01.804Z,18.53
2019-03-13T22:11:34.130Z,18.17
2019-03-13T22:14:04.614Z,17.83
2019-03-13T22:16:35.192Z,17.77
2019-03-13T22:19:05.650Z,18.40
2019-03-13T22:21:36.412Z,18.30
2019-03-13T22:24:07.030Z,17.90
2019-03-13T22:26:37.776Z,18.47
2019-03-13T22:29:08.486Z,19.33
2019-03-13T22:31:38.868Z,18.90
2019-03-13T22:34:09.342Z,18.70
2019-03-13T22:36:39.988Z,20.17
2019-03-13T22:39:10.398Z,20.53
2019-03-13T22:41:41.026Z,20.07
2019-03-13T22:44:11.489Z,21.10
2019-03-13T22:46:41.986Z,20.77
2019-03-13T22:49:12.472Z,21.30
2019-03-13T22:51:43.280Z,21.33
2019-03-13T22:54:13.880Z,20.97
2019-03-13T22:56:44.579Z,21.83
2019-03-13T22:59:15.189Z,21.07
2019-03-13T23:01:45.948Z,20.97
2019-03-13T23:04:16.525Z,21.43
2019-03-13T23:06:47.025Z,21.27
2019-03-13T23:09:17.735Z,21.77
2019-03-13T23:11:48.319Z,22.23
2019-03-13T23:14:18.801Z,20.87
2019-03-13T23:16:49.365Z,21.57
2019-03-13T23:19:19.926Z,21.00
2019-03-13T23:21:50.509Z,22.47
2019-03-13T23:24:21.274Z,21.90
2019-03-13T23:26:51.993Z,22.23
2019-03-13T23:29:22.501Z,21.60
2019-03-13T23:31:53.183Z,20.63
2019-03-13T23:34:23.708Z,21.70
2019-03-13T23:36:54.263Z,20.50
2019-03-13T23:39:24.770Z,21.00
2019-03-13T23:41:55.221Z,21.07
2019-03-13T23:44:25.622Z,20.83
2019-03-13T23:46:56.033Z,20.60
2019-03-13T23:49:26.440Z,20.87
2019-03-13T23:51:57.004Z,19.83
2019-03-13T23:54:27.457Z,25.27
2019-03-13T23:56:57.856Z,19.43
2019-03-13T23:59:28.316Z,19.23
